Time;durP1;ratioP1;P1;durP2;ratioP2;P2;SDS_P1;SDS_P2;PMS_P1;PMS_P2;Temp;Humidity;BMP_temperature;BMP_pressure;BME280_temperature;BME280_humidity;BME280_pressure;Samples;Min_cycle;Max_cycle;Signal;HPM_P1;HPM_P2
2023/10/17 00:02:10;;;;;;;0.60;0.60;;;13.40;75.60;;;;;;6302182;22;20272;-85
2023/10/17 00:04:41;;;;;;;0.57;0.50;;;13.40;75.70;;;;;;6302493;22;20680;-86
2023/10/17 00:07:12;;;;;;;0.60;0.60;;;13.40;76.00;;;;;;6301393;22;20244;-86
2023/10/17 00:09:42;;;;;;;3.37;1.33;;;13.40;76.00;;;;;;6301996;22;20193;-87
2023/10/17 00:12:25;;;;;;;0.80;0.70;;;13.40;76.00;;;;;;6303524;22;20165;-84
2023/10/17 00:15:00;;;;;;;0.83;0.83;;;13.30;76.10;;;;;;6302732;22;20226;-86
2023/10/17 00:17:33;;;;;;;2.27;0.57;;;13.30;76.00;;;;;;6300729;22;20172;-85
2023/10/17 00:20:14;;;;;;;0.57;0.57;;;13.30;76.00;;;;;;6302809;22;20166;-87
2023/10/17 00:22:44;;;;;;;0.30;0.30;;;13.30;76.10;;;;;;6302097;22;20165;-85
2023/10/17 00:25:17;;;;;;;0.40;0.40;;;13.30;76.20;;;;;;6301635;22;20272;-85
2023/10/17 00:27:51;;;;;;;0.40;0.40;;;13.30;76.20;;;;;;6301309;22;20623;-84
2023/10/17 00:30:21;;;;;;;0.40;0.40;;;13.20;76.20;;;;;;6302885;22;20195;-85
2023/10/17 00:32:51;;;;;;;3.70;1.37;;;13.20;76.40;;;;;;6301033;22;20195;-87
2023/10/17 00:35:25;;;;;;;0.63;0.63;;;13.20;76.40;;;;;;6302525;22;20166;-84
2023/10/17 00:37:57;;;;;;;1.10;0.87;;;13.10;76.90;;;;;;6299537;22;20222;-85
2023/10/17 00:43:15;;;;;;;0.77;0.50;;;13.10;77.20;;;;;;6301551;22;20546;-87
2023/10/17 00:45:47;;;;;;;0.50;0.50;;;13.10;77.20;;;;;;6301639;22;20176;-87
2023/10/17 00:48:20;;;;;;;0.57;0.57;;;13.00;77.60;;;;;;6302725;22;20162;-88
2023/10/17 00:50:56;;;;;;;1.73;1.63;;;13.00;77.70;;;;;;6301732;22;20188;-86
2023/10/17 00:53:27;;;;;;;0.63;0.63;;;12.90;77.40;;;;;;6301520;22;20223;-85
2023/10/17 00:55:56;;;;;;;1.93;1.10;;;12.90;77.50;;;;;;6302736;22;20165;-85
2023/10/17 00:58:27;;;;;;;0.70;0.70;;;12.90;77.50;;;;;;6300953;22;20191;-85
2023/10/17 01:01:09;;;;;;;0.30;0.30;;;12.90;77.40;;;;;;6300912;22;20197;-85
2023/10/17 01:03:42;;;;;;;0.50;0.50;;;12.80;77.40;;;;;;6301654;22;20483;-85
2023/10/17 01:06:23;;;;;;;0.60;0.60;;;12.80;77.40;;;;;;6301102;22;20165;-86
2023/10/17 01:08:54;;;;;;;1.60;1.17;;;12.80;77.50;;;;;;6302922;22;20398;-86
2023/10/17 01:11:27;;;;;;;0.60;0.60;;;12.80;77.70;;;;;;6301118;22;20535;-86
2023/10/17 01:14:01;;;;;;;0.43;0.43;;;12.80;78.30;;;;;;6300974;22;20210;-86
2023/10/17 01:16:35;;;;;;;0.50;0.50;;;12.70;78.00;;;;;;6300456;22;20247;-88
2023/10/17 01:19:07;;;;;;;1.57;1.10;;;12.70;78.00;;;;;;6301603;22;20217;-87
2023/10/17 01:21:40;;;;;;;5.30;2.10;;;12.70;78.70;;;;;;6301800;22;20196;-86
2023/10/17 01:24:11;;;;;;;2.07;1.80;;;12.70;78.40;;;;;;6301437;22;20165;-87
2023/10/17 01:26:44;;;;;;;0.70;0.70;;;12.70;78.30;;;;;;6300147;22;20165;-87
2023/10/17 01:29:14;;;;;;;0.43;0.43;;;12.60;78.70;;;;;;6300962;22;20185;-85
2023/10/17 01:31:44;;;;;;;0.40;0.40;;;12.60;78.70;;;;;;6301975;22;20172;-85
2023/10/17 01:34:13;;;;;;;1.53;0.90;;;12.60;79.00;;;;;;6301767;22;20172;-85
2023/10/17 01:36:43;;;;;;;0.50;0.50;;;12.50;78.80;;;;;;6301959;22;20167;-86
2023/10/17 01:39:14;;;;;;;1.03;1.00;;;12.50;78.80;;;;;;6301696;22;20165;-85
2023/10/17 01:41:48;;;;;;;1.37;1.27;;;12.50;78.80;;;;;;6301448;22;20238;-85
2023/10/17 01:44:16;;;;;;;0.50;0.50;;;12.50;79.30;;;;;;6300313;22;20619;-84
2023/10/17 01:46:47;;;;;;;0.57;0.57;;;12.40;79.70;;;;;;6302276;22;20171;-85
2023/10/17 01:49:19;;;;;;;0.50;0.50;;;12.40;79.10;;;;;;6300943;22;20196;-84
2023/10/17 01:51:49;;;;;;;1.07;0.53;;;12.40;79.30;;;;;;6299583;22;20161;-83
2023/10/17 01:54:21;;;;;;;1.97;1.77;;;12.40;79.20;;;;;;6301745;22;20165;-85
2023/10/17 01:56:50;;;;;;;0.57;0.57;;;12.40;79.80;;;;;;6301555;22;20161;-84
2023/10/17 01:59:25;;;;;;;1.67;1.13;;;12.30;79.50;;;;;;6300475;22;20686;-86
2023/10/17 02:01:57;;;;;;;0.73;0.73;;;12.30;79.40;;;;;;6300748;22;20192;-85
2023/10/17 02:04:25;;;;;;;0.67;0.67;;;12.30;79.50;;;;;;6300475;22;20195;-86
2023/10/17 02:06:55;;;;;;;0.40;0.40;;;12.30;79.60;;;;;;6299085;22;20165;-84
2023/10/17 02:09:44;;;;;;;1.23;1.23;;;12.20;79.90;;;;;;6303842;22;20188;-85
2023/10/17 02:12:19;;;;;;;0.60;0.60;;;12.20;80.10;;;;;;6302648;22;20561;-84
2023/10/17 02:14:48;;;;;;;1.53;1.43;;;12.20;79.80;;;;;;6302997;22;20168;-85
2023/10/17 02:17:18;;;;;;;0.87;0.73;;;12.20;79.80;;;;;;6301114;22;20180;-86
2023/10/17 02:19:47;;;;;;;0.90;0.90;;;12.20;79.90;;;;;;6301907;22;20165;-86
2023/10/17 02:22:16;;;;;;;1.50;1.23;;;12.10;79.80;;;;;;6301764;22;20605;-85
2023/10/17 02:24:46;;;;;;;1.40;1.30;;;12.10;79.70;;;;;;6303937;22;20695;-84
2023/10/17 02:27:21;;;;;;;0.77;0.77;;;12.10;79.80;;;;;;6302329;22;20496;-85
2023/10/17 02:29:53;;;;;;;0.40;0.40;;;12.10;79.70;;;;;;6302525;22;20267;-83
2023/10/17 02:32:21;;;;;;;0.50;0.50;;;12.10;79.70;;;;;;6302481;22;20244;-85
2023/10/17 02:34:54;;;;;;;0.40;0.40;;;12.10;79.70;;;;;;6300561;22;20214;-83
2023/10/17 02:37:29;;;;;;;0.40;0.40;;;12.10;79.70;;;;;;6301354;22;20231;-86
2023/10/17 02:40:09;;;;;;;0.50;0.50;;;12.10;79.60;;;;;;6302870;22;20175;-85
2023/10/17 02:42:38;;;;;;;4.27;1.07;;;12.10;79.50;;;;;;6301977;22;20165;-84
2023/10/17 02:45:08;;;;;;;0.63;0.63;;;12.10;79.70;;;;;;6303011;22;20607;-85
2023/10/17 02:47:37;;;;;;;1.33;1.03;;;12.10;79.60;;;;;;6303787;22;20165;-85
2023/10/17 02:50:42;;;;;;;0.70;0.70;;;12.10;79.60;;;;;;6304017;22;20189;-86
2023/10/17 02:53:02;;;;;;;0.83;0.83;;;12.10;79.70;;;;;;6301623;22;20161;-86
2023/10/17 02:55:32;;;;;;;0.50;0.50;;;12.00;79.80;;;;;;6302820;22;20173;-85
2023/10/17 02:58:01;;;;;;;0.73;0.50;;;12.00;79.80;;;;;;6299919;22;20633;-84
2023/10/17 03:00:33;;;;;;;0.80;0.80;;;12.00;80.00;;;;;;6301081;22;20172;-84
2023/10/17 03:03:12;;;;;;;2.37;1.00;;;12.00;80.10;;;;;;6299078;22;20165;-83
2023/10/17 03:05:44;;;;;;;0.97;0.70;;;11.90;80.10;;;;;;6300466;22;20629;-84
2023/10/17 03:08:17;;;;;;;3.50;0.80;;;11.90;80.00;;;;;;6300417;22;20248;-87
2023/10/17 03:10:55;;;;;;;1.40;0.87;;;11.90;80.00;;;;;;6299915;22;20225;-84
2023/10/17 03:13:24;;;;;;;0.80;0.80;;;11.90;80.30;;;;;;6303461;22;20494;-83
2023/10/17 03:15:55;;;;;;;1.07;0.70;;;11.90;80.40;;;;;;6299800;22;20172;-83
2023/10/17 03:18:24;;;;;;;1.17;1.07;;;11.90;80.60;;;;;;6299568;22;20173;-84
2023/10/17 03:31:42;;;;;;;1.03;0.80;;;11.70;81.00;;;;;;6243788;22;20192;31
2023/10/17 03:37:33;;;;;;;0.50;0.50;;;11.70;80.90;;;;;;6177409;23;20198;-85
2023/10/17 03:40:15;;;;;;;1.13;1.00;;;11.70;81.00;;;;;;6155887;23;20741;-85
2023/10/17 03:42:46;;;;;;;0.97;0.80;;;11.70;80.80;;;;;;6179119;23;20170;-84
2023/10/17 03:45:23;;;;;;;1.23;0.90;;;11.70;80.70;;;;;;6180029;23;20202;-84
2023/10/17 03:47:57;;;;;;;0.77;0.77;;;11.70;80.70;;;;;;6177195;23;20163;-85
2023/10/17 03:50:34;;;;;;;1.43;1.33;;;11.70;80.80;;;;;;6179785;23;20200;-83
2023/10/17 03:53:07;;;;;;;0.40;0.40;;;11.60;80.70;;;;;;6178816;23;20172;-84
2023/10/17 03:55:43;;;;;;;0.50;0.50;;;11.60;80.60;;;;;;6179955;23;20175;-86
2023/10/17 03:58:25;;;;;;;0.93;0.83;;;11.60;80.80;;;;;;6179322;23;20246;-85
2023/10/17 04:00:55;;;;;;;3.53;1.13;;;11.60;81.80;;;;;;6180871;23;20178;-85
2023/10/17 04:03:26;;;;;;;0.80;0.63;;;11.60;81.10;;;;;;6180531;23;20660;-84
2023/10/17 04:06:02;;;;;;;6.13;2.23;;;11.60;81.00;;;;;;6181454;23;20168;-84
2023/10/17 04:08:34;;;;;;;1.30;1.20;;;11.60;81.10;;;;;;6182589;23;20250;-84
2023/10/17 04:11:17;;;;;;;1.70;1.13;;;11.50;81.60;;;;;;6180894;23;20199;-85
2023/10/17 04:13:48;;;;;;;0.47;0.47;;;11.50;81.50;;;;;;6181741;23;20246;-84
2023/10/17 04:16:21;;;;;;;2.27;2.03;;;11.50;81.60;;;;;;6181638;23;20168;-84
2023/10/17 04:18:55;;;;;;;1.60;1.10;;;11.40;81.50;;;;;;6183628;23;20172;-84
2023/10/17 04:21:30;;;;;;;0.50;0.50;;;11.50;81.50;;;;;;6185201;23;20168;-83
2023/10/17 04:24:01;;;;;;;1.87;1.70;;;11.40;81.50;;;;;;6182567;23;20175;-85
2023/10/17 04:26:34;;;;;;;1.37;1.03;;;11.40;81.40;;;;;;6185801;23;20167;-83
2023/10/17 04:29:13;;;;;;;17.87;1.53;;;11.40;81.30;;;;;;6180828;23;20227;-86
2023/10/17 04:31:44;;;;;;;0.40;0.40;;;11.40;81.30;;;;;;6180838;23;20234;-85
2023/10/17 04:34:18;;;;;;;1.53;1.20;;;11.40;81.20;;;;;;6210351;23;20209;-84
2023/10/17 04:36:47;;;;;;;1.93;1.13;;;11.40;81.30;;;;;;6210709;23;20181;-85
2023/10/17 04:39:25;;;;;;;1.20;1.10;;;11.40;81.40;;;;;;6211057;23;20201;-85
2023/10/17 04:42:09;;;;;;;0.43;0.43;;;11.40;81.20;;;;;;6211490;23;20170;-87
2023/10/17 04:44:47;;;;;;;1.37;1.10;;;11.40;81.30;;;;;;6210929;23;20536;-86
2023/10/17 04:47:29;;;;;;;5.83;1.80;;;11.40;81.30;;;;;;6210180;23;20182;-85
2023/10/17 04:49:58;;;;;;;0.97;0.97;;;11.30;81.50;;;;;;6208892;23;20217;-86
2023/10/17 04:52:30;;;;;;;1.57;1.40;;;11.30;81.30;;;;;;6209727;23;20773;-84
2023/10/17 04:55:17;;;;;;;0.90;0.60;;;11.30;81.50;;;;;;6210312;23;20175;-84
2023/10/17 04:57:58;;;;;;;1.23;0.90;;;11.30;81.50;;;;;;6210178;23;20163;-85
2023/10/17 05:00:43;;;;;;;1.07;0.93;;;11.30;81.60;;;;;;6211688;23;20178;-85
2023/10/17 05:03:26;;;;;;;0.93;0.93;;;11.30;81.50;;;;;;6210746;23;20227;-85
2023/10/17 05:06:18;;;;;;;1.47;1.37;;;11.30;81.50;;;;;;6212017;23;20250;-84
2023/10/17 05:09:25;;;;;;;0.83;0.83;;;11.40;81.50;;;;;;6211432;23;20171;-83
2023/10/17 06:19:09;;;;;;;0.60;0.60;;;12.40;83.30;;;;;;6208657;23;20497;-82
2023/10/17 06:21:54;;;;;;;0.83;0.83;;;12.40;83.30;;;;;;6207478;23;20175;-84
2023/10/17 06:24:45;;;;;;;1.07;0.83;;;12.50;83.30;;;;;;6208145;23;20171;-82
2023/10/17 06:33:02;;;;;;;0.47;0.47;;;12.90;83.20;;;;;;6207113;23;20210;-83
2023/10/17 06:35:31;;;;;;;0.67;0.67;;;13.00;82.90;;;;;;6209174;23;20167;-84
2023/10/17 06:38:00;;;;;;;0.73;0.73;;;13.10;82.50;;;;;;6208634;23;20633;-85
2023/10/17 06:40:45;;;;;;;1.23;1.13;;;13.20;82.40;;;;;;6207957;23;20270;-84
2023/10/17 06:43:27;;;;;;;1.03;1.00;;;13.30;82.10;;;;;;6209010;23;20254;-84
2023/10/17 06:45:57;;;;;;;1.90;0.87;;;13.30;81.90;;;;;;6208804;23;20218;-83
2023/10/17 06:48:32;;;;;;;0.60;0.60;;;13.40;81.50;;;;;;6207962;23;20202;-83
2023/10/17 06:53:52;;;;;;;4.40;2.17;;;13.60;80.50;;;;;;6210384;23;20169;-85
2023/10/17 06:56:21;;;;;;;2.07;1.77;;;13.70;80.50;;;;;;6210720;23;20171;-85
2023/10/17 06:59:03;;;;;;;1.60;0.97;;;13.80;80.20;;;;;;6212151;23;20199;-85
2023/10/17 07:01:34;;;;;;;0.70;0.70;;;13.80;78.90;;;;;;6210433;23;20171;-83
2023/10/17 07:04:03;;;;;;;0.63;0.63;;;13.80;78.90;;;;;;6211749;23;20167;-85
2023/10/17 07:06:38;;;;;;;0.83;0.73;;;13.90;79.00;;;;;;6210923;23;20171;-85
2023/10/17 07:09:19;;;;;;;0.50;0.50;;;14.00;78.90;;;;;;6210536;23;20174;-84
2023/10/17 07:11:48;;;;;;;0.70;0.70;;;14.10;79.00;;;;;;6212208;23;20191;-84
2023/10/17 07:14:26;;;;;;;1.13;1.03;;;14.10;78.30;;;;;;6212704;23;20167;-85
2023/10/17 07:17:00;;;;;;;2.13;2.03;;;14.20;77.50;;;;;;6208990;23;20167;-84
2023/10/17 07:19:47;;;;;;;0.53;0.53;;;14.30;78.00;;;;;;6209909;23;20201;-83
2023/10/17 07:22:18;;;;;;;0.67;0.50;;;14.40;78.00;;;;;;6210710;23;20171;-83
2023/10/17 07:24:50;;;;;;;3.73;2.17;;;14.50;78.00;;;;;;6211033;23;20171;-84
2023/10/17 07:27:26;;;;;;;2.10;1.70;;;14.50;77.10;;;;;;6211138;23;20171;-83
2023/10/17 07:30:10;;;;;;;2.37;2.20;;;14.60;76.40;;;;;;6211313;23;20255;-84
2023/10/17 07:32:54;;;;;;;1.27;0.93;;;14.60;76.00;;;;;;6211442;23;20645;-83
2023/10/17 07:35:30;;;;;;;1.27;1.17;;;14.70;76.10;;;;;;6212977;23;20489;-82
2023/10/17 07:38:04;;;;;;;1.13;1.03;;;14.70;75.60;;;;;;6211634;23;20221;-85
2023/10/17 07:40:42;;;;;;;0.50;0.50;;;14.80;75.20;;;;;;6212529;23;20170;-85
2023/10/17 07:43:15;;;;;;;1.63;1.47;;;14.80;74.50;;;;;;6215978;23;20178;-89
2023/10/17 07:46:06;;;;;;;5.23;1.50;;;14.90;74.80;;;;;;6212210;23;20173;-87
2023/10/17 07:48:37;;;;;;;0.60;0.60;;;14.90;74.70;;;;;;6213281;23;20217;-86
2023/10/17 07:51:07;;;;;;;10.13;1.50;;;15.00;74.30;;;;;;6213785;23;20163;-83
2023/10/17 07:53:43;;;;;;;3.70;0.73;;;15.00;74.60;;;;;;6212208;23;20199;-85
2023/10/17 07:56:26;;;;;;;1.53;1.43;;;15.10;74.60;;;;;;6199276;23;20202;-85
2023/10/17 07:59:04;;;;;;;1.70;1.40;;;15.20;74.10;;;;;;6212570;23;20225;-87
2023/10/17 08:01:38;;;;;;;0.70;0.70;;;15.30;73.80;;;;;;6211597;23;20167;-87
2023/10/17 08:04:17;;;;;;;1.17;0.43;;;15.30;72.10;;;;;;6214421;23;20172;-86
2023/10/17 08:06:50;;;;;;;0.93;0.80;;;15.40;72.20;;;;;;6211928;23;20175;-87
2023/10/17 08:09:24;;;;;;;1.70;0.83;;;15.50;72.30;;;;;;6213106;23;20226;-87
2023/10/17 08:12:13;;;;;;;2.10;1.57;;;15.60;71.80;;;;;;6214090;23;20718;-87
2023/10/17 08:14:45;;;;;;;0.73;0.50;;;15.60;72.00;;;;;;6213772;23;20233;-89
2023/10/17 08:17:14;;;;;;;1.20;1.10;;;15.70;71.70;;;;;;6212903;23;20167;-87
2023/10/17 08:20:09;;;;;;;2.00;1.47;;;15.70;70.70;;;;;;6213651;23;20191;-88
2023/10/17 08:22:55;;;;;;;1.60;0.97;;;15.80;71.10;;;;;;6212660;23;20171;-87
2023/10/17 08:25:32;;;;;;;2.20;0.87;;;15.80;71.30;;;;;;6212245;23;20760;-87
2023/10/17 08:28:04;;;;;;;0.57;0.57;;;15.90;71.30;;;;;;6212847;23;20173;-88
2023/10/17 08:30:38;;;;;;;0.57;0.57;;;15.90;71.30;;;;;;6213615;23;20246;-87
2023/10/17 08:33:15;;;;;;;2.87;1.37;;;16.00;70.80;;;;;;6210803;23;20203;-87
2023/10/17 08:35:52;;;;;;;1.10;1.00;;;16.00;70.50;;;;;;6211681;23;20254;-88
2023/10/17 08:38:19;;;;;;;1.30;0.73;;;16.00;70.10;;;;;;6212000;23;20185;-89
2023/10/17 08:40:54;;;;;;;1.33;1.23;;;16.10;70.40;;;;;;6212619;23;20628;-91
2023/10/17 08:43:22;;;;;;;2.77;1.07;;;16.20;70.50;;;;;;6212215;23;20190;-86
2023/10/17 08:45:54;;;;;;;0.60;0.60;;;16.30;70.30;;;;;;6209258;23;20171;-86
2023/10/17 08:48:24;;;;;;;0.53;0.53;;;16.30;70.30;;;;;;6213654;23;20167;-86
2023/10/17 08:57:56;;;;;;;0.60;0.60;;;16.50;66.10;;;;;;6238562;22;20181;-84
2023/10/17 09:03:11;;;;;;;1.00;0.90;;;16.60;66.10;;;;;;6248713;22;20524;-87
2023/10/17 09:09:33;;;;;;;0.70;0.70;;;16.80;65.60;;;;;;6304032;22;20181;-86
2023/10/17 09:12:11;;;;;;;0.77;0.77;;;16.90;65.30;;;;;;6195898;22;20164;-88
2023/10/17 09:14:48;;;;;;;0.87;0.73;;;16.90;64.40;;;;;;6304547;22;20165;-90
2023/10/17 09:17:28;;;;;;;1.03;0.77;;;17.00;64.40;;;;;;6302294;22;20566;-88
2023/10/17 09:20:06;;;;;;;6.03;1.33;;;17.10;64.40;;;;;;6301008;22;20168;-85
2023/10/17 09:22:40;;;;;;;0.30;0.30;;;17.10;64.40;;;;;;6306268;22;20168;-89
2023/10/17 09:25:19;;;;;;;0.50;0.40;;;17.20;64.00;;;;;;6308068;22;20168;-87
2023/10/17 09:27:54;;;;;;;2.27;0.80;;;17.30;63.60;;;;;;6302510;22;20208;-89
2023/10/17 09:30:30;;;;;;;1.17;1.07;;;17.30;63.20;;;;;;6305461;22;20272;-90
2023/10/17 09:33:01;;;;;;;0.40;0.40;;;17.40;63.70;;;;;;6305174;22;20245;-87
2023/10/17 09:35:30;;;;;;;0.37;0.37;;;17.50;63.50;;;;;;6305893;22;20570;-88
2023/10/17 09:38:00;;;;;;;0.57;0.57;;;17.50;61.70;;;;;;6302313;22;20161;-85
2023/10/17 10:01:17;;;;;;;1.43;1.00;;;18.10;58.20;;;;;;6289145;22;20200;-86
2023/10/17 10:04:07;;;;;;;0.37;0.37;;;18.10;57.60;;;;;;6302031;22;20245;-86
2023/10/17 18:12:38;;;;;;;1.90;1.07;;;15.80;64.80;;;;;;6297451;22;20223;-88
2023/10/17 18:19:28;;;;;;;1.83;0.90;;;15.70;64.40;;;;;;6205996;23;20164;-85
2023/10/17 18:22:34;;;;;;;16.30;1.20;;;15.70;64.10;;;;;;6110268;23;20249;-88
2023/10/17 18:25:49;;;;;;;2.43;1.70;;;15.70;64.10;;;;;;6207368;23;20209;-86
2023/10/17 18:29:31;;;;;;;0.40;0.40;;;15.70;64.10;;;;;;6058058;23;20222;-87
2023/10/17 18:32:13;;;;;;;1.27;1.17;;;15.70;64.50;;;;;;6021639;23;20604;-85
2023/10/17 18:34:53;;;;;;;1.83;1.13;;;15.70;64.50;;;;;;6205603;23;20198;-87
2023/10/17 18:37:30;;;;;;;0.87;0.80;;;15.60;64.60;;;;;;6208827;23;20182;-88
2023/10/17 18:40:45;;;;;;;;;;;;;;;;;;;;;
2023/10/17 18:43:43;;;;;;;1.00;0.90;;;15.60;64.50;;;;;;6184632;23;20566;-88
2023/10/17 18:46:33;;;;;;;0.60;0.60;;;15.60;64.60;;;;;;6205295;23;20167;-85
2023/10/17 18:52:55;;;;;;;1.10;1.03;;;15.60;64.40;;;;;;6192653;23;20191;-88
2023/10/17 18:55:38;;;;;;;1.60;1.50;;;15.60;64.40;;;;;;6266194;22;20192;-87
2023/10/17 18:58:28;;;;;;;2.53;1.53;;;15.60;64.40;;;;;;6307919;22;20160;-87
2023/10/17 19:01:17;;;;;;;0.53;0.53;;;15.60;64.60;;;;;;6306537;22;20176;-87
2023/10/17 19:04:27;;;;;;;0.40;0.40;;;15.60;64.40;;;;;;6306670;22;20685;-86
2023/10/17 19:07:06;;;;;;;0.50;0.50;;;15.60;64.40;;;;;;6301126;22;20226;-86
2023/10/17 19:09:34;;;;;;;1.27;1.07;;;15.60;64.20;;;;;;6300982;22;20165;-87
2023/10/17 19:12:07;;;;;;;3.90;1.43;;;15.50;64.20;;;;;;6299654;22;20251;-87
2023/10/17 19:14:37;;;;;;;0.80;0.80;;;15.60;64.90;;;;;;6302517;22;20682;-87
2023/10/17 19:17:08;;;;;;;0.80;0.80;;;15.50;64.30;;;;;;6302331;22;20474;-85
2023/10/17 19:19:41;;;;;;;0.70;0.70;;;15.60;64.20;;;;;;6301740;22;20248;-86
2023/10/17 19:22:15;;;;;;;1.60;0.87;;;15.60;64.20;;;;;;6276143;22;20608;-86
2023/10/17 19:24:47;;;;;;;0.50;0.50;;;15.60;63.90;;;;;;6301247;22;20248;-88
2023/10/17 19:27:16;;;;;;;1.10;0.83;;;15.60;63.90;;;;;;6301538;22;20165;-87
2023/10/17 19:29:45;;;;;;;0.77;0.77;;;15.50;63.80;;;;;;6302230;22;20165;-85
2023/10/17 19:32:14;;;;;;;0.40;0.40;;;15.50;63.80;;;;;;6304312;22;20157;-86
2023/10/17 19:34:45;;;;;;;0.50;0.50;;;15.50;63.80;;;;;;6304011;22;20682;-86
2023/10/17 19:37:20;;;;;;;0.50;0.50;;;15.50;63.60;;;;;;6303322;22;20168;-87
2023/10/17 19:39:50;;;;;;;1.87;1.27;;;15.50;63.70;;;;;;6299852;22;20825;-86
2023/10/17 19:42:19;;;;;;;2.30;0.83;;;15.40;63.80;;;;;;6304181;22;20240;-85
2023/10/17 19:44:47;;;;;;;0.90;0.50;;;15.40;63.60;;;;;;6304827;22;20387;-84
2023/10/17 19:47:18;;;;;;;2.23;1.07;;;15.40;63.50;;;;;;6300735;22;20169;-85
2023/10/17 19:49:50;;;;;;;0.50;0.50;;;15.30;63.40;;;;;;6301652;22;20184;-86
2023/10/17 19:52:31;;;;;;;0.50;0.50;;;15.30;63.30;;;;;;6303555;22;20169;-86
2023/10/17 19:54:59;;;;;;;0.60;0.60;;;15.30;63.30;;;;;;6300017;22;20193;-86
2023/10/17 19:57:29;;;;;;;8.10;0.80;;;15.30;63.50;;;;;;6299180;22;20507;-87
2023/10/17 19:59:58;;;;;;;0.40;0.40;;;15.40;63.50;;;;;;6297992;22;20169;-86
2023/10/17 20:02:29;;;;;;;0.70;0.70;;;15.30;63.30;;;;;;6302377;22;20614;-84
2023/10/17 20:04:59;;;;;;;2.13;0.80;;;15.40;63.50;;;;;;6297434;22;20252;-85
2023/10/17 20:07:29;;;;;;;0.70;0.70;;;15.40;63.60;;;;;;6301671;22;20172;-86
2023/10/17 20:09:59;;;;;;;1.27;1.17;;;15.40;63.70;;;;;;6298846;22;20591;-87
2023/10/17 20:12:27;;;;;;;0.30;0.30;;;15.40;63.80;;;;;;6303519;22;20612;-87
2023/10/17 20:14:58;;;;;;;1.00;0.97;;;15.40;63.90;;;;;;6331871;22;20192;-88
2023/10/17 20:17:28;;;;;;;0.40;0.40;;;15.40;64.10;;;;;;6333329;22;20226;-87
2023/10/17 20:19:57;;;;;;;1.60;1.43;;;15.40;64.20;;;;;;6332533;22;20168;-87
2023/10/17 20:22:27;;;;;;;2.83;2.07;;;15.30;64.20;;;;;;6331958;22;20243;-85
2023/10/17 20:25:00;;;;;;;0.80;0.60;;;15.30;64.40;;;;;;6333060;22;20169;-87
2023/10/17 20:27:29;;;;;;;1.13;0.70;;;15.40;64.40;;;;;;6333234;22;20210;-86
2023/10/17 20:29:58;;;;;;;0.50;0.50;;;15.30;64.80;;;;;;6332280;22;20218;-87
2023/10/17 20:32:27;;;;;;;0.73;0.73;;;15.40;64.60;;;;;;6332912;22;20816;-84
2023/10/17 20:34:58;;;;;;;0.93;0.73;;;15.40;64.50;;;;;;6329880;22;20231;-85
2023/10/17 20:37:30;;;;;;;0.97;0.40;;;15.30;64.90;;;;;;6332991;22;20168;-87
2023/10/17 20:40:10;;;;;;;0.30;0.30;;;15.30;64.80;;;;;;6333562;22;20167;-86
2023/10/17 20:42:42;;;;;;;0.63;0.63;;;15.40;64.80;;;;;;6308466;22;20199;-88
2023/10/17 20:45:13;;;;;;;0.30;0.30;;;15.40;64.80;;;;;;6332501;22;20259;-85
2023/10/17 20:47:44;;;;;;;0.47;0.47;;;15.40;64.90;;;;;;6330716;22;20179;-86
2023/10/17 20:50:13;;;;;;;0.63;0.60;;;15.30;65.00;;;;;;6333282;22;20172;-86
2023/10/17 20:52:48;;;;;;;1.20;1.10;;;15.30;65.60;;;;;;6332116;22;20248;-87
2023/10/17 20:55:18;;;;;;;0.50;0.50;;;15.30;65.50;;;;;;6331500;22;20521;-85
2023/10/17 20:57:48;;;;;;;1.63;0.63;;;15.30;65.50;;;;;;6330766;22;20160;-87
2023/10/17 21:00:19;;;;;;;1.23;1.13;;;15.30;65.60;;;;;;6329817;22;20221;-85
2023/10/17 21:02:50;;;;;;;0.57;0.57;;;15.30;65.60;;;;;;6330386;22;20175;-85
2023/10/17 21:05:19;;;;;;;1.73;0.93;;;15.30;65.80;;;;;;6334383;22;20182;-85
2023/10/17 21:07:49;;;;;;;0.50;0.50;;;15.30;65.80;;;;;;6334365;22;20233;-86
2023/10/17 21:10:17;;;;;;;0.47;0.47;;;15.30;65.70;;;;;;6335590;22;20168;-85
2023/10/17 21:12:46;;;;;;;0.37;0.37;;;15.30;65.80;;;;;;6332086;22;20945;-85
2023/10/17 21:15:16;;;;;;;0.50;0.50;;;15.30;66.10;;;;;;6334886;22;20192;-86
2023/10/17 21:17:45;;;;;;;0.67;0.67;;;15.30;66.30;;;;;;6334073;22;20180;-86
2023/10/17 21:20:18;;;;;;;0.30;0.30;;;15.30;66.40;;;;;;6332865;22;20160;-86
2023/10/17 21:22:52;;;;;;;0.40;0.40;;;15.30;66.30;;;;;;6331300;22;20163;-85
2023/10/17 21:25:26;;;;;;;0.87;0.87;;;15.30;66.30;;;;;;6332495;22;20554;-88
2023/10/17 21:27:55;;;;;;;0.30;0.30;;;15.30;67.10;;;;;;6329607;22;20168;-85
2023/10/17 21:30:25;;;;;;;0.33;0.30;;;15.30;66.20;;;;;;6331963;22;20544;-88
2023/10/17 21:32:55;;;;;;;0.53;0.53;;;15.30;66.90;;;;;;6331035;22;20196;-87
2023/10/17 21:35:23;;;;;;;0.40;0.40;;;15.30;66.70;;;;;;6332067;22;20188;-88
2023/10/17 21:37:56;;;;;;;0.50;0.50;;;15.30;67.20;;;;;;6329822;22;20168;-87
2023/10/17 21:40:26;;;;;;;1.03;0.97;;;15.30;66.90;;;;;;6331420;22;20235;-88
2023/10/17 21:42:56;;;;;;;0.93;0.87;;;15.20;67.80;;;;;;6329497;22;20203;-87
2023/10/17 21:45:25;;;;;;;0.60;0.60;;;15.30;67.70;;;;;;6331141;22;20164;-88
2023/10/17 21:47:55;;;;;;;0.40;0.40;;;15.30;67.80;;;;;;6332376;22;20161;-86
2023/10/17 21:50:25;;;;;;;0.40;0.40;;;15.30;67.70;;;;;;6332962;22;20171;-87
2023/10/17 21:52:56;;;;;;;10.00;1.17;;;15.30;67.60;;;;;;6331265;22;20200;-86
2023/10/17 21:55:24;;;;;;;0.43;0.43;;;15.30;68.40;;;;;;6333490;22;20653;-86
2023/10/17 21:57:54;;;;;;;2.30;0.70;;;15.20;69.10;;;;;;6332389;22;20212;-87
2023/10/17 22:00:28;;;;;;;0.73;0.73;;;15.20;68.10;;;;;;6332016;22;20865;-87
2023/10/17 22:02:57;;;;;;;0.73;0.73;;;15.20;68.20;;;;;;6330931;22;20164;-86
2023/10/17 22:05:27;;;;;;;3.30;0.83;;;15.20;68.10;;;;;;6332194;22;20247;-85
2023/10/17 22:07:59;;;;;;;0.33;0.33;;;15.10;68.20;;;;;;6333671;22;20289;-88
2023/10/17 22:10:28;;;;;;;1.33;0.87;;;15.10;68.10;;;;;;6330871;22;20167;-84
2023/10/17 22:13:03;;;;;;;0.60;0.60;;;15.10;68.10;;;;;;6332038;22;20188;-88
2023/10/17 22:15:34;;;;;;;0.40;0.40;;;15.10;68.70;;;;;;6331922;22;20192;-85
2023/10/17 22:18:02;;;;;;;21.73;1.17;;;15.10;68.70;;;;;;6330714;22;20160;-86
2023/10/17 22:20:32;;;;;;;1.03;0.43;;;15.00;68.40;;;;;;6332961;22;20618;-88
2023/10/17 22:23:02;;;;;;;0.80;0.80;;;15.00;68.80;;;;;;6332170;22;20633;-87
2023/10/17 22:25:32;;;;;;;0.30;0.30;;;15.00;69.20;;;;;;6334102;22;20168;-85
2023/10/17 22:28:02;;;;;;;0.73;0.50;;;15.00;69.20;;;;;;6333871;22;20230;-86
2023/10/17 22:30:33;;;;;;;1.07;0.70;;;15.00;69.30;;;;;;6308864;22;20233;-85
2023/10/17 22:33:01;;;;;;;1.97;0.80;;;15.00;69.50;;;;;;6334934;22;20235;-87
2023/10/17 22:35:31;;;;;;;0.40;0.40;;;15.00;70.00;;;;;;6333627;22;20188;-85
2023/10/17 22:38:01;;;;;;;0.40;0.40;;;14.90;70.50;;;;;;6334316;22;20247;-86
2023/10/17 22:40:29;;;;;;;0.57;0.57;;;14.90;70.30;;;;;;6334123;22;20233;-85
2023/10/17 22:42:58;;;;;;;1.57;0.90;;;14.90;70.60;;;;;;6333460;22;20164;-87
2023/10/17 22:45:27;;;;;;;0.63;0.63;;;14.90;70.60;;;;;;6335461;22;20226;-86
2023/10/17 22:47:56;;;;;;;0.30;0.30;;;14.90;70.90;;;;;;6335427;22;20621;-85
2023/10/17 22:50:25;;;;;;;0.60;0.60;;;14.90;70.90;;;;;;6334929;22;20196;-88
2023/10/17 22:52:53;;;;;;;0.40;0.40;;;14.90;71.10;;;;;;6332894;22;20167;-86
2023/10/17 22:55:26;;;;;;;0.50;0.50;;;14.90;71.00;;;;;;6334808;22;20228;-86
2023/10/17 22:57:56;;;;;;;0.77;0.77;;;14.80;70.90;;;;;;6334093;22;20251;-87
2023/10/17 23:00:25;;;;;;;0.50;0.50;;;14.90;71.00;;;;;;6334917;22;20556;-87
2023/10/17 23:02:55;;;;;;;0.67;0.67;;;14.90;71.10;;;;;;6332304;22;20210;-86
2023/10/17 23:05:26;;;;;;;0.70;0.70;;;14.80;71.30;;;;;;6334180;22;20191;-85
2023/10/17 23:07:56;;;;;;;1.13;1.03;;;14.80;71.10;;;;;;6335430;22;20169;-86
2023/10/17 23:10:28;;;;;;;0.60;0.60;;;14.80;71.40;;;;;;6334242;22;20174;-85
2023/10/17 23:12:57;;;;;;;0.50;0.50;;;14.80;71.40;;;;;;6333262;22;20212;-86
2023/10/17 23:15:33;;;;;;;0.40;0.40;;;14.90;71.30;;;;;;6331179;22;20548;-87
2023/10/17 23:18:02;;;;;;;0.30;0.30;;;14.90;71.20;;;;;;6333088;22;20163;-85
2023/10/17 23:20:32;;;;;;;0.50;0.50;;;14.90;71.10;;;;;;6335574;22;20187;-84
2023/10/17 23:23:01;;;;;;;0.73;0.70;;;14.90;70.90;;;;;;6335692;22;20614;-85
2023/10/17 23:25:32;;;;;;;0.67;0.67;;;15.00;70.90;;;;;;6333607;22;20598;-84
2023/10/17 23:28:01;;;;;;;0.30;0.30;;;15.00;71.10;;;;;;6333225;22;20164;-86
2023/10/17 23:30:32;;;;;;;1.50;0.90;;;15.00;71.20;;;;;;6334675;22;20164;-86
2023/10/17 23:33:03;;;;;;;0.43;0.43;;;14.90;71.10;;;;;;6332941;22;20175;-86
2023/10/17 23:35:32;;;;;;;1.30;0.50;;;15.00;71.10;;;;;;6334987;22;20213;-85
2023/10/17 23:38:02;;;;;;;0.50;0.50;;;15.00;70.80;;;;;;6332639;22;20199;-87
2023/10/17 23:40:36;;;;;;;0.30;0.30;;;15.00;70.70;;;;;;6335150;22;20161;-86
2023/10/17 23:43:05;;;;;;;2.03;0.97;;;15.00;70.90;;;;;;6333333;22;20221;-88
2023/10/17 23:45:34;;;;;;;0.60;0.60;;;15.00;71.10;;;;;;6333398;22;20168;-86